In Rescue
 
Open Full Screen Window  High Contrast Mode
December 04, 2021 11:33 PM GMT
Weather Information
Wind Direction
  ---
Wind Speed
  00 kt (0 mph)
Wind Gust
  00 kt (0 mph)
Altimeter
30.11 in
Visibility
10 SM
Temperature
-01° C
30° F
Dewpoint
-03° C
27° F
Humidity
86%
Sky Condition
Clear
VFR

METAR K22N 042333Z AUTO 00000KT 10SM CLR M01/M03 A3011 RMK AO2

FAA Disclaimer: The data displayed is for advisory purposes only and is not to be used for flight planning or operations.